sensor_id;sensor_type;location;lat;lon;timestamp;P1;durP1;ratioP1;P2;durP2;ratioP2
16626;SDS011;8427;52.204;7.202;2023-08-06T00:00:03;82.90;;;73.10;;
16626;SDS011;8427;52.204;7.202;2023-08-06T00:02:32;87.27;;;77.03;;
16626;SDS011;8427;52.204;7.202;2023-08-06T00:05:00;76.28;;;68.53;;
16626;SDS011;8427;52.204;7.202;2023-08-06T00:07:30;58.97;;;54.30;;
16626;SDS011;8427;52.204;7.202;2023-08-06T00:09:58;66.93;;;60.70;;
16626;SDS011;8427;52.204;7.202;2023-08-06T00:12:25;59.60;;;54.73;;
16626;SDS011;8427;52.204;7.202;2023-08-06T00:14:53;74.07;;;62.30;;
16626;SDS011;8427;52.204;7.202;2023-08-06T00:17:21;65.80;;;60.10;;
16626;SDS011;8427;52.204;7.202;2023-08-06T00:19:49;70.20;;;63.27;;
16626;SDS011;8427;52.204;7.202;2023-08-06T00:22:17;74.57;;;66.87;;
16626;SDS011;8427;52.204;7.202;2023-08-06T00:24:47;50.10;;;47.10;;
16626;SDS011;8427;52.204;7.202;2023-08-06T00:27:15;42.40;;;40.30;;
16626;SDS011;8427;52.204;7.202;2023-08-06T00:29:43;39.23;;;37.53;;
16626;SDS011;8427;52.204;7.202;2023-08-06T00:32:11;55.77;;;51.03;;
16626;SDS011;8427;52.204;7.202;2023-08-06T00:34:39;59.40;;;54.23;;
16626;SDS011;8427;52.204;7.202;2023-08-06T00:37:07;55.60;;;50.10;;
16626;SDS011;8427;52.204;7.202;2023-08-06T00:39:35;45.40;;;42.87;;
16626;SDS011;8427;52.204;7.202;2023-08-06T00:42:04;39.83;;;38.07;;
16626;SDS011;8427;52.204;7.202;2023-08-06T00:44:32;43.43;;;41.27;;
16626;SDS011;8427;52.204;7.202;2023-08-06T00:47:00;40.70;;;38.80;;
16626;SDS011;8427;52.204;7.202;2023-08-06T00:49:29;45.50;;;42.80;;
16626;SDS011;8427;52.204;7.202;2023-08-06T00:51:59;58.73;;;52.53;;
16626;SDS011;8427;52.204;7.202;2023-08-06T00:54:28;41.17;;;39.23;;
16626;SDS011;8427;52.204;7.202;2023-08-06T00:56:56;40.03;;;38.23;;
16626;SDS011;8427;52.204;7.202;2023-08-06T00:59:26;36.70;;;35.30;;
16626;SDS011;8427;52.204;7.202;2023-08-06T01:01:55;38.60;;;37.00;;
16626;SDS011;8427;52.204;7.202;2023-08-06T01:04:23;57.07;;;51.23;;
16626;SDS011;8427;52.204;7.202;2023-08-06T01:06:52;48.13;;;45.33;;
16626;SDS011;8427;52.204;7.202;2023-08-06T01:09:43;39.33;;;37.63;;
16626;SDS011;8427;52.204;7.202;2023-08-06T01:12:18;39.10;;;37.40;;
16626;SDS011;8427;52.204;7.202;2023-08-06T01:14:58;38.53;;;36.83;;
16626;SDS011;8427;52.204;7.202;2023-08-06T01:17:35;54.42;;;50.22;;
16626;SDS011;8427;52.204;7.202;2023-08-06T01:20:04;44.30;;;41.97;;
16626;SDS011;8427;52.204;7.202;2023-08-06T01:22:34;46.03;;;43.40;;
16626;SDS011;8427;52.204;7.202;2023-08-06T01:25:02;37.90;;;36.30;;
16626;SDS011;8427;52.204;7.202;2023-08-06T01:27:30;35.70;;;34.40;;
16626;SDS011;8427;52.204;7.202;2023-08-06T01:30:06;38.77;;;37.17;;
16626;SDS011;8427;52.204;7.202;2023-08-06T01:32:40;36.27;;;34.87;;
16626;SDS011;8427;52.204;7.202;2023-08-06T01:35:12;35.30;;;34.00;;
16626;SDS011;8427;52.204;7.202;2023-08-06T01:37:46;38.77;;;37.07;;
16626;SDS011;8427;52.204;7.202;2023-08-06T01:40:14;38.63;;;36.90;;
16626;SDS011;8427;52.204;7.202;2023-08-06T01:42:42;39.00;;;37.30;;
16626;SDS011;8427;52.204;7.202;2023-08-06T01:45:11;36.97;;;35.57;;
16626;SDS011;8427;52.204;7.202;2023-08-06T01:47:39;37.93;;;36.40;;
16626;SDS011;8427;52.204;7.202;2023-08-06T01:50:07;36.30;;;35.00;;
16626;SDS011;8427;52.204;7.202;2023-08-06T01:52:35;36.63;;;35.23;;
16626;SDS011;8427;52.204;7.202;2023-08-06T01:55:05;38.33;;;36.77;;
16626;SDS011;8427;52.204;7.202;2023-08-06T01:57:33;37.27;;;35.80;;
16626;SDS011;8427;52.204;7.202;2023-08-06T02:00:02;36.43;;;35.03;;
16626;SDS011;8427;52.204;7.202;2023-08-06T02:02:30;37.57;;;36.10;;
16626;SDS011;8427;52.204;7.202;2023-08-06T02:05:00;39.27;;;37.57;;
16626;SDS011;8427;52.204;7.202;2023-08-06T02:07:28;39.30;;;37.70;;
16626;SDS011;8427;52.204;7.202;2023-08-06T02:09:56;44.07;;;41.83;;
16626;SDS011;8427;52.204;7.202;2023-08-06T02:12:25;40.87;;;39.07;;
16626;SDS011;8427;52.204;7.202;2023-08-06T02:14:53;40.03;;;38.30;;
16626;SDS011;8427;52.204;7.202;2023-08-06T02:17:21;40.93;;;39.03;;
16626;SDS011;8427;52.204;7.202;2023-08-06T02:19:49;42.50;;;40.40;;
16626;SDS011;8427;52.204;7.202;2023-08-06T02:22:17;48.47;;;45.60;;
16626;SDS011;8427;52.204;7.202;2023-08-06T02:24:45;61.63;;;55.43;;
16626;SDS011;8427;52.204;7.202;2023-08-06T02:27:13;43.03;;;40.90;;
16626;SDS011;8427;52.204;7.202;2023-08-06T02:29:43;63.80;;;57.30;;
16626;SDS011;8427;52.204;7.202;2023-08-06T02:32:11;59.70;;;54.20;;
16626;SDS011;8427;52.204;7.202;2023-08-06T02:34:39;59.35;;;53.75;;
16626;SDS011;8427;52.204;7.202;2023-08-06T02:37:07;48.50;;;45.60;;
16626;SDS011;8427;52.204;7.202;2023-08-06T02:39:35;43.07;;;40.97;;
16626;SDS011;8427;52.204;7.202;2023-08-06T02:42:06;42.93;;;40.80;;
16626;SDS011;8427;52.204;7.202;2023-08-06T02:44:34;37.73;;;36.20;;
16626;SDS011;8427;52.204;7.202;2023-08-06T02:47:05;37.03;;;35.60;;
16626;SDS011;8427;52.204;7.202;2023-08-06T02:49:33;36.80;;;35.40;;
16626;SDS011;8427;52.204;7.202;2023-08-06T02:52:01;37.00;;;35.50;;
16626;SDS011;8427;52.204;7.202;2023-08-06T02:54:29;42.73;;;40.60;;
16626;SDS011;8427;52.204;7.202;2023-08-06T02:56:57;38.43;;;36.83;;
16626;SDS011;8427;52.204;7.202;2023-08-06T02:59:25;40.70;;;38.80;;
16626;SDS011;8427;52.204;7.202;2023-08-06T03:01:53;47.13;;;44.43;;
16626;SDS011;8427;52.204;7.202;2023-08-06T03:04:22;40.33;;;38.53;;
16626;SDS011;8427;52.204;7.202;2023-08-06T03:06:51;41.50;;;39.43;;
16626;SDS011;8427;52.204;7.202;2023-08-06T03:09:19;37.17;;;35.77;;
16626;SDS011;8427;52.204;7.202;2023-08-06T03:11:47;36.83;;;35.40;;
16626;SDS011;8427;52.204;7.202;2023-08-06T03:14:15;36.47;;;35.07;;
16626;SDS011;8427;52.204;7.202;2023-08-06T03:16:43;36.30;;;35.00;;
16626;SDS011;8427;52.204;7.202;2023-08-06T03:19:11;36.13;;;34.83;;
16626;SDS011;8427;52.204;7.202;2023-08-06T03:21:41;35.47;;;34.17;;
16626;SDS011;8427;52.204;7.202;2023-08-06T03:24:08;35.90;;;34.60;;
16626;SDS011;8427;52.204;7.202;2023-08-06T03:26:36;37.30;;;35.80;;
16626;SDS011;8427;52.204;7.202;2023-08-06T03:29:04;36.53;;;35.13;;
16626;SDS011;8427;52.204;7.202;2023-08-06T03:31:32;35.80;;;34.50;;
16626;SDS011;8427;52.204;7.202;2023-08-06T03:34:01;35.47;;;34.23;;
16626;SDS011;8427;52.204;7.202;2023-08-06T03:36:29;34.97;;;33.77;;
16626;SDS011;8427;52.204;7.202;2023-08-06T03:38:58;35.00;;;33.80;;
16626;SDS011;8427;52.204;7.202;2023-08-06T03:41:26;35.47;;;34.17;;
16626;SDS011;8427;52.204;7.202;2023-08-06T03:43:54;36.27;;;34.87;;
16626;SDS011;8427;52.204;7.202;2023-08-06T03:46:22;42.10;;;40.00;;
16626;SDS011;8427;52.204;7.202;2023-08-06T03:48:50;35.87;;;34.57;;
16626;SDS011;8427;52.204;7.202;2023-08-06T03:51:18;36.67;;;35.23;;
16626;SDS011;8427;52.204;7.202;2023-08-06T03:53:46;34.93;;;33.73;;
16626;SDS011;8427;52.204;7.202;2023-08-06T03:56:15;35.30;;;34.00;;
16626;SDS011;8427;52.204;7.202;2023-08-06T03:58:43;35.73;;;34.43;;
16626;SDS011;8427;52.204;7.202;2023-08-06T04:01:11;34.80;;;33.60;;
16626;SDS011;8427;52.204;7.202;2023-08-06T04:03:39;35.03;;;33.83;;
16626;SDS011;8427;52.204;7.202;2023-08-06T04:06:07;36.43;;;35.07;;
16626;SDS011;8427;52.204;7.202;2023-08-06T04:08:35;34.87;;;33.67;;
16626;SDS011;8427;52.204;7.202;2023-08-06T04:11:03;35.60;;;34.30;;
16626;SDS011;8427;52.204;7.202;2023-08-06T04:13:33;38.30;;;36.67;;
16626;SDS011;8427;52.204;7.202;2023-08-06T04:16:01;35.43;;;34.23;;
16626;SDS011;8427;52.204;7.202;2023-08-06T04:18:29;35.47;;;34.17;;
16626;SDS011;8427;52.204;7.202;2023-08-06T04:20:57;37.60;;;36.10;;
16626;SDS011;8427;52.204;7.202;2023-08-06T04:23:25;38.03;;;36.43;;
16626;SDS011;8427;52.204;7.202;2023-08-06T04:25:55;35.50;;;34.20;;
16626;SDS011;8427;52.204;7.202;2023-08-06T04:28:24;36.30;;;34.97;;
16626;SDS011;8427;52.204;7.202;2023-08-06T04:30:53;36.53;;;35.13;;
16626;SDS011;8427;52.204;7.202;2023-08-06T04:33:21;36.50;;;35.20;;
16626;SDS011;8427;52.204;7.202;2023-08-06T04:35:53;36.27;;;34.97;;
16626;SDS011;8427;52.204;7.202;2023-08-06T04:38:23;35.53;;;34.27;;
16626;SDS011;8427;52.204;7.202;2023-08-06T04:40:51;35.93;;;34.63;;
16626;SDS011;8427;52.204;7.202;2023-08-06T04:43:19;36.03;;;34.73;;
16626;SDS011;8427;52.204;7.202;2023-08-06T04:45:47;36.63;;;35.23;;
16626;SDS011;8427;52.204;7.202;2023-08-06T04:48:17;40.50;;;38.70;;
16626;SDS011;8427;52.204;7.202;2023-08-06T04:50:45;35.53;;;34.27;;
16626;SDS011;8427;52.204;7.202;2023-08-06T04:53:13;35.40;;;34.10;;
16626;SDS011;8427;52.204;7.202;2023-08-06T04:55:42;39.40;;;37.77;;
16626;SDS011;8427;52.204;7.202;2023-08-06T04:58:10;40.17;;;38.37;;
16626;SDS011;8427;52.204;7.202;2023-08-06T05:00:38;36.23;;;34.90;;
16626;SDS011;8427;52.204;7.202;2023-08-06T05:03:06;36.97;;;35.50;;
16626;SDS011;8427;52.204;7.202;2023-08-06T05:05:35;36.63;;;35.23;;
16626;SDS011;8427;52.204;7.202;2023-08-06T05:08:03;36.40;;;35.10;;
16626;SDS011;8427;52.204;7.202;2023-08-06T05:10:31;57.00;;;51.50;;
16626;SDS011;8427;52.204;7.202;2023-08-06T05:12:59;39.63;;;37.93;;
16626;SDS011;8427;52.204;7.202;2023-08-06T05:15:27;40.07;;;38.37;;
16626;SDS011;8427;52.204;7.202;2023-08-06T05:17:56;39.00;;;37.40;;
16626;SDS011;8427;52.204;7.202;2023-08-06T05:20:24;43.60;;;41.30;;
16626;SDS011;8427;52.204;7.202;2023-08-06T05:22:53;37.43;;;35.93;;
16626;SDS011;8427;52.204;7.202;2023-08-06T05:25:21;35.03;;;33.83;;
16626;SDS011;8427;52.204;7.202;2023-08-06T05:27:49;35.03;;;33.83;;
16626;SDS011;8427;52.204;7.202;2023-08-06T05:30:17;34.33;;;33.13;;
16626;SDS011;8427;52.204;7.202;2023-08-06T05:32:45;35.30;;;34.10;;
16626;SDS011;8427;52.204;7.202;2023-08-06T05:35:13;35.03;;;33.83;;
16626;SDS011;8427;52.204;7.202;2023-08-06T05:37:41;36.17;;;34.87;;
16626;SDS011;8427;52.204;7.202;2023-08-06T05:40:11;35.10;;;33.90;;
16626;SDS011;8427;52.204;7.202;2023-08-06T05:42:39;35.63;;;34.33;;
16626;SDS011;8427;52.204;7.202;2023-08-06T05:45:07;35.90;;;34.60;;
16626;SDS011;8427;52.204;7.202;2023-08-06T05:47:36;37.00;;;35.60;;
16626;SDS011;8427;52.204;7.202;2023-08-06T05:50:05;36.53;;;35.23;;
16626;SDS011;8427;52.204;7.202;2023-08-06T05:52:33;37.67;;;36.17;;
16626;SDS011;8427;52.204;7.202;2023-08-06T05:55:01;37.20;;;35.80;;
16626;SDS011;8427;52.204;7.202;2023-08-06T05:57:31;37.70;;;36.30;;
16626;SDS011;8427;52.204;7.202;2023-08-06T06:00:00;36.57;;;35.17;;
16626;SDS011;8427;52.204;7.202;2023-08-06T06:02:28;37.33;;;35.93;;
16626;SDS011;8427;52.204;7.202;2023-08-06T06:04:56;36.13;;;34.83;;
16626;SDS011;8427;52.204;7.202;2023-08-06T06:07:24;37.63;;;36.13;;
16626;SDS011;8427;52.204;7.202;2023-08-06T06:09:52;37.17;;;35.77;;
16626;SDS011;8427;52.204;7.202;2023-08-06T06:12:20;36.43;;;35.13;;
16626;SDS011;8427;52.204;7.202;2023-08-06T06:14:50;36.87;;;35.47;;
16626;SDS011;8427;52.204;7.202;2023-08-06T06:17:18;39.17;;;37.47;;
16626;SDS011;8427;52.204;7.202;2023-08-06T06:19:46;35.50;;;34.20;;
16626;SDS011;8427;52.204;7.202;2023-08-06T06:22:14;37.87;;;36.33;;
16626;SDS011;8427;52.204;7.202;2023-08-06T06:24:42;39.20;;;37.57;;
16626;SDS011;8427;52.204;7.202;2023-08-06T06:27:10;36.80;;;35.33;;
16626;SDS011;8427;52.204;7.202;2023-08-06T06:29:38;36.53;;;35.20;;
16626;SDS011;8427;52.204;7.202;2023-08-06T06:32:08;37.40;;;36.00;;
16626;SDS011;8427;52.204;7.202;2023-08-06T06:34:36;36.80;;;35.40;;
16626;SDS011;8427;52.204;7.202;2023-08-06T06:37:04;36.87;;;35.47;;
16626;SDS011;8427;52.204;7.202;2023-08-06T06:39:32;36.63;;;35.23;;
16626;SDS011;8427;52.204;7.202;2023-08-06T06:42:00;37.60;;;36.10;;
16626;SDS011;8427;52.204;7.202;2023-08-06T06:44:29;37.63;;;36.17;;
16626;SDS011;8427;52.204;7.202;2023-08-06T06:46:56;38.80;;;37.13;;
16626;SDS011;8427;52.204;7.202;2023-08-06T06:49:26;37.60;;;36.10;;
16626;SDS011;8427;52.204;7.202;2023-08-06T06:51:54;37.67;;;36.17;;
16626;SDS011;8427;52.204;7.202;2023-08-06T06:54:22;37.63;;;36.13;;
16626;SDS011;8427;52.204;7.202;2023-08-06T06:56:50;40.33;;;38.53;;
16626;SDS011;8427;52.204;7.202;2023-08-06T06:59:18;38.70;;;37.10;;
16626;SDS011;8427;52.204;7.202;2023-08-06T07:01:46;40.40;;;38.60;;
16626;SDS011;8427;52.204;7.202;2023-08-06T07:04:14;39.17;;;37.50;;
16626;SDS011;8427;52.204;7.202;2023-08-06T07:06:43;40.13;;;38.37;;
16626;SDS011;8427;52.204;7.202;2023-08-06T07:09:11;39.10;;;37.50;;
16626;SDS011;8427;52.204;7.202;2023-08-06T07:11:39;39.63;;;38.03;;
16626;SDS011;8427;52.204;7.202;2023-08-06T07:14:09;41.30;;;39.43;;
16626;SDS011;8427;52.204;7.202;2023-08-06T07:16:37;47.30;;;44.40;;
16626;SDS011;8427;52.204;7.202;2023-08-06T07:19:05;40.27;;;38.47;;
16626;SDS011;8427;52.204;7.202;2023-08-06T07:21:33;39.33;;;37.63;;
16626;SDS011;8427;52.204;7.202;2023-08-06T07:24:03;51.87;;;47.87;;
16626;SDS011;8427;52.204;7.202;2023-08-06T07:26:31;63.67;;;56.87;;
16626;SDS011;8427;52.204;7.202;2023-08-06T07:28:59;64.50;;;58.00;;
16626;SDS011;8427;52.204;7.202;2023-08-06T07:31:27;56.03;;;51.80;;
16626;SDS011;8427;52.204;7.202;2023-08-06T07:33:55;43.10;;;40.93;;
16626;SDS011;8427;52.204;7.202;2023-08-06T07:36:23;65.67;;;59.37;;
16626;SDS011;8427;52.204;7.202;2023-08-06T07:38:51;51.60;;;47.40;;
16626;SDS011;8427;52.204;7.202;2023-08-06T07:41:23;50.23;;;46.33;;
16626;SDS011;8427;52.204;7.202;2023-08-06T07:43:51;55.77;;;50.97;;
16626;SDS011;8427;52.204;7.202;2023-08-06T07:46:19;45.90;;;43.30;;
16626;SDS011;8427;52.204;7.202;2023-08-06T07:48:47;44.60;;;42.10;;
16626;SDS011;8427;52.204;7.202;2023-08-06T07:51:15;47.33;;;44.42;;
16626;SDS011;8427;52.204;7.202;2023-08-06T07:53:44;50.58;;;46.85;;
16626;SDS011;8427;52.204;7.202;2023-08-06T07:56:13;47.80;;;44.70;;
16626;SDS011;8427;52.204;7.202;2023-08-06T07:58:42;61.97;;;55.67;;
16626;SDS011;8427;52.204;7.202;2023-08-06T08:01:10;64.93;;;57.97;;
16626;SDS011;8427;52.204;7.202;2023-08-06T08:03:38;49.40;;;45.83;;
16626;SDS011;8427;52.204;7.202;2023-08-06T08:06:06;45.00;;;42.30;;
16626;SDS011;8427;52.204;7.202;2023-08-06T08:08:34;52.53;;;47.93;;
16626;SDS011;8427;52.204;7.202;2023-08-06T08:11:05;51.53;;;47.13;;
16626;SDS011;8427;52.204;7.202;2023-08-06T08:13:33;52.40;;;47.80;;
16626;SDS011;8427;52.204;7.202;2023-08-06T08:16:03;50.80;;;46.90;;
16626;SDS011;8427;52.204;7.202;2023-08-06T08:18:31;49.00;;;46.03;;
16626;SDS011;8427;52.204;7.202;2023-08-06T08:20:59;42.90;;;40.60;;
16626;SDS011;8427;52.204;7.202;2023-08-06T08:23:27;45.90;;;43.30;;
16626;SDS011;8427;52.204;7.202;2023-08-06T08:25:57;43.07;;;40.77;;
16626;SDS011;8427;52.204;7.202;2023-08-06T08:28:26;42.97;;;40.67;;
16626;SDS011;8427;52.204;7.202;2023-08-06T08:30:54;45.67;;;43.00;;
16626;SDS011;8427;52.204;7.202;2023-08-06T08:33:23;44.73;;;42.30;;
16626;SDS011;8427;52.204;7.202;2023-08-06T08:35:51;44.33;;;41.90;;
16626;SDS011;8427;52.204;7.202;2023-08-06T08:38:19;42.50;;;40.30;;
16626;SDS011;8427;52.204;7.202;2023-08-06T08:40:47;43.17;;;40.87;;
16626;SDS011;8427;52.204;7.202;2023-08-06T08:43:19;42.93;;;40.63;;
16626;SDS011;8427;52.204;7.202;2023-08-06T08:45:49;45.40;;;42.70;;
16626;SDS011;8427;52.204;7.202;2023-08-06T08:48:18;44.37;;;41.87;;
16626;SDS011;8427;52.204;7.202;2023-08-06T08:50:48;46.47;;;43.57;;
16626;SDS011;8427;52.204;7.202;2023-08-06T08:53:17;51.83;;;47.70;;
16626;SDS011;8427;52.204;7.202;2023-08-06T08:55:46;44.20;;;41.80;;
16626;SDS011;8427;52.204;7.202;2023-08-06T08:58:15;45.77;;;43.07;;
16626;SDS011;8427;52.204;7.202;2023-08-06T09:00:45;46.30;;;43.50;;
16626;SDS011;8427;52.204;7.202;2023-08-06T09:03:14;46.10;;;43.30;;
16626;SDS011;8427;52.204;7.202;2023-08-06T09:05:44;49.13;;;45.83;;
16626;SDS011;8427;52.204;7.202;2023-08-06T09:08:18;46.90;;;43.83;;
16626;SDS011;8427;52.204;7.202;2023-08-06T09:10:51;45.40;;;42.60;;
16626;SDS011;8427;52.204;7.202;2023-08-06T09:13:20;50.63;;;46.73;;
16626;SDS011;8427;52.204;7.202;2023-08-06T09:15:49;49.03;;;45.43;;
16626;SDS011;8427;52.204;7.202;2023-08-06T15:53:04;61.83;;;54.03;;
16626;SDS011;8427;52.204;7.202;2023-08-06T16:03:00;51.70;;;47.90;;
16626;SDS011;8427;52.204;7.202;2023-08-06T16:10:26;43.40;;;41.20;;
16626;SDS011;8427;52.204;7.202;2023-08-06T16:12:55;42.03;;;39.93;;
16626;SDS011;8427;52.204;7.202;2023-08-06T16:15:23;43.63;;;41.43;;
16626;SDS011;8427;52.204;7.202;2023-08-06T16:17:51;45.33;;;42.90;;
16626;SDS011;8427;52.204;7.202;2023-08-06T16:20:19;41.10;;;39.30;;
16626;SDS011;8427;52.204;7.202;2023-08-06T16:22:46;39.90;;;38.10;;
16626;SDS011;8427;52.204;7.202;2023-08-06T16:25:14;45.57;;;42.87;;
16626;SDS011;8427;52.204;7.202;2023-08-06T16:27:42;57.10;;;51.90;;
16626;SDS011;8427;52.204;7.202;2023-08-06T16:30:12;43.50;;;41.10;;
16626;SDS011;8427;52.204;7.202;2023-08-06T16:32:40;49.27;;;46.03;;
16626;SDS011;8427;52.204;7.202;2023-08-06T16:35:08;44.97;;;42.27;;
16626;SDS011;8427;52.204;7.202;2023-08-06T16:37:37;51.20;;;47.10;;
16626;SDS011;8427;52.204;7.202;2023-08-06T16:40:05;54.50;;;49.20;;
16626;SDS011;8427;52.204;7.202;2023-08-06T16:42:35;53.97;;;49.37;;
16626;SDS011;8427;52.204;7.202;2023-08-06T16:45:04;55.30;;;49.80;;
16626;SDS011;8427;52.204;7.202;2023-08-06T16:47:35;56.10;;;50.70;;
16626;SDS011;8427;52.204;7.202;2023-08-06T16:50:03;89.23;;;62.93;;
16626;SDS011;8427;52.204;7.202;2023-08-06T16:52:35;60.47;;;54.20;;
16626;SDS011;8427;52.204;7.202;2023-08-06T16:55:04;11.52;;;11.15;;
16626;SDS011;8427;52.204;7.202;2023-08-06T16:57:32;38.38;;;37.08;;
16626;SDS011;8427;52.204;7.202;2023-08-06T17:00:00;73.80;;;69.20;;
16626;SDS011;8427;52.204;7.202;2023-08-06T17:02:29;41.57;;;39.67;;
16626;SDS011;8427;52.204;7.202;2023-08-06T17:04:58;56.37;;;50.87;;
16626;SDS011;8427;52.204;7.202;2023-08-06T17:07:26;41.20;;;39.20;;
16626;SDS011;8427;52.204;7.202;2023-08-06T17:09:54;39.23;;;37.53;;
16626;SDS011;8427;52.204;7.202;2023-08-06T17:12:22;40.13;;;38.43;;
16626;SDS011;8427;52.204;7.202;2023-08-06T17:14:52;39.27;;;37.57;;
16626;SDS011;8427;52.204;7.202;2023-08-06T17:17:20;37.77;;;36.27;;
16626;SDS011;8427;52.204;7.202;2023-08-06T17:19:48;37.80;;;36.30;;
16626;SDS011;8427;52.204;7.202;2023-08-06T17:22:17;37.90;;;36.40;;
16626;SDS011;8427;52.204;7.202;2023-08-06T17:24:45;40.30;;;38.60;;
16626;SDS011;8427;52.204;7.202;2023-08-06T17:27:13;37.27;;;35.80;;
16626;SDS011;8427;52.204;7.202;2023-08-06T17:29:41;37.57;;;36.07;;
16626;SDS011;8427;52.204;7.202;2023-08-06T17:32:09;38.43;;;36.90;;
16626;SDS011;8427;52.204;7.202;2023-08-06T17:34:39;39.33;;;37.60;;
16626;SDS011;8427;52.204;7.202;2023-08-06T17:37:07;37.80;;;36.30;;
16626;SDS011;8427;52.204;7.202;2023-08-06T17:39:36;40.63;;;38.93;;
16626;SDS011;8427;52.204;7.202;2023-08-06T17:42:04;42.70;;;40.60;;
16626;SDS011;8427;52.204;7.202;2023-08-06T17:47:04;53.27;;;49.03;;
16626;SDS011;8427;52.204;7.202;2023-08-06T17:49:32;40.80;;;38.93;;
16626;SDS011;8427;52.204;7.202;2023-08-06T17:52:01;44.23;;;41.93;;
16626;SDS011;8427;52.204;7.202;2023-08-06T17:54:29;58.00;;;52.50;;
16626;SDS011;8427;52.204;7.202;2023-08-06T17:56:58;60.73;;;54.70;;
16626;SDS011;8427;52.204;7.202;2023-08-06T17:59:27;48.50;;;45.20;;
16626;SDS011;8427;52.204;7.202;2023-08-06T18:01:55;41.30;;;39.37;;
16626;SDS011;8427;52.204;7.202;2023-08-06T18:04:23;37.50;;;36.00;;
16626;SDS011;8427;52.204;7.202;2023-08-06T18:06:51;38.77;;;37.17;;
16626;SDS011;8427;52.204;7.202;2023-08-06T18:09:19;41.30;;;39.40;;
16626;SDS011;8427;52.204;7.202;2023-08-06T18:11:47;60.63;;;54.63;;
16626;SDS011;8427;52.204;7.202;2023-08-06T18:14:17;43.73;;;41.53;;
16626;SDS011;8427;52.204;7.202;2023-08-06T18:16:45;40.40;;;38.50;;
16626;SDS011;8427;52.204;7.202;2023-08-06T18:19:13;46.10;;;43.53;;
16626;SDS011;8427;52.204;7.202;2023-08-06T18:21:41;58.30;;;53.17;;
16626;SDS011;8427;52.204;7.202;2023-08-06T18:24:10;39.90;;;38.10;;
16626;SDS011;8427;52.204;7.202;2023-08-06T18:26:38;42.03;;;40.03;;
16626;SDS011;8427;52.204;7.202;2023-08-06T18:29:06;60.90;;;54.77;;
16626;SDS011;8427;52.204;7.202;2023-08-06T18:31:36;43.27;;;41.07;;
16626;SDS011;8427;52.204;7.202;2023-08-06T18:34:04;52.60;;;48.00;;
16626;SDS011;8427;52.204;7.202;2023-08-06T18:36:33;56.67;;;50.97;;
16626;SDS011;8427;52.204;7.202;2023-08-06T18:39:01;45.70;;;43.10;;
16626;SDS011;8427;52.204;7.202;2023-08-06T18:41:29;43.37;;;41.10;;
16626;SDS011;8427;52.204;7.202;2023-08-06T18:43:57;46.00;;;43.40;;
16626;SDS011;8427;52.204;7.202;2023-08-06T18:46:25;39.20;;;37.50;;
16626;SDS011;8427;52.204;7.202;2023-08-06T18:48:55;38.70;;;37.10;;
16626;SDS011;8427;52.204;7.202;2023-08-06T18:51:23;38.07;;;36.57;;
16626;SDS011;8427;52.204;7.202;2023-08-06T18:53:51;37.20;;;35.70;;
16626;SDS011;8427;52.204;7.202;2023-08-06T18:56:19;36.10;;;34.80;;
16626;SDS011;8427;52.204;7.202;2023-08-06T18:58:47;36.10;;;34.80;;
16626;SDS011;8427;52.204;7.202;2023-08-06T19:01:15;36.17;;;34.87;;
16626;SDS011;8427;52.204;7.202;2023-08-06T19:03:43;37.27;;;35.83;;
16626;SDS011;8427;52.204;7.202;2023-08-06T19:06:13;36.73;;;35.27;;
16626;SDS011;8427;52.204;7.202;2023-08-06T19:08:41;36.40;;;35.00;;
16626;SDS011;8427;52.204;7.202;2023-08-06T19:11:09;35.30;;;34.00;;
16626;SDS011;8427;52.204;7.202;2023-08-06T19:13:37;37.93;;;36.43;;
16626;SDS011;8427;52.204;7.202;2023-08-06T19:16:05;38.90;;;37.17;;
16626;SDS011;8427;52.204;7.202;2023-08-06T19:18:33;38.63;;;37.03;;
16626;SDS011;8427;52.204;7.202;2023-08-06T19:21:01;37.57;;;36.07;;
16626;SDS011;8427;52.204;7.202;2023-08-06T19:23:31;37.73;;;36.23;;
16626;SDS011;8427;52.204;7.202;2023-08-06T19:25:59;39.07;;;37.37;;
16626;SDS011;8427;52.204;7.202;2023-08-06T19:28:28;36.37;;;35.07;;
16626;SDS011;8427;52.204;7.202;2023-08-06T19:30:57;36.00;;;34.60;;
16626;SDS011;8427;52.204;7.202;2023-08-06T19:33:25;39.07;;;37.40;;
16626;SDS011;8427;52.204;7.202;2023-08-06T19:35:54;34.80;;;33.60;;
16626;SDS011;8427;52.204;7.202;2023-08-06T19:38:22;35.50;;;34.20;;
16626;SDS011;8427;52.204;7.202;2023-08-06T19:41:01;35.23;;;34.03;;
16626;SDS011;8427;52.204;7.202;2023-08-06T19:43:30;36.47;;;35.08;;
16626;SDS011;8427;52.204;7.202;2023-08-06T19:45:58;34.40;;;33.20;;
16626;SDS011;8427;52.204;7.202;2023-08-06T19:48:26;35.47;;;34.17;;
16626;SDS011;8427;52.204;7.202;2023-08-06T19:50:55;35.73;;;34.43;;
16626;SDS011;8427;52.204;7.202;2023-08-06T19:53:27;35.80;;;34.50;;
16626;SDS011;8427;52.204;7.202;2023-08-06T19:55:59;34.83;;;33.63;;
16626;SDS011;8427;52.204;7.202;2023-08-06T19:58:30;35.73;;;34.43;;
16626;SDS011;8427;52.204;7.202;2023-08-06T20:01:00;35.70;;;34.40;;
16626;SDS011;8427;52.204;7.202;2023-08-06T20:03:29;36.97;;;35.47;;
16626;SDS011;8427;52.204;7.202;2023-08-06T20:05:59;36.33;;;34.93;;
16626;SDS011;8427;52.204;7.202;2023-08-06T20:08:28;35.90;;;34.60;;
16626;SDS011;8427;52.204;7.202;2023-08-06T20:10:59;36.97;;;35.57;;
16626;SDS011;8427;52.204;7.202;2023-08-06T20:13:27;38.67;;;37.03;;
16626;SDS011;8427;52.204;7.202;2023-08-06T20:15:55;43.20;;;41.10;;
16626;SDS011;8427;52.204;7.202;2023-08-06T20:18:23;53.70;;;49.60;;
16626;SDS011;8427;52.204;7.202;2023-08-06T20:20:52;44.47;;;42.07;;
16626;SDS011;8427;52.204;7.202;2023-08-06T20:23:21;56.50;;;51.50;;
16626;SDS011;8427;52.204;7.202;2023-08-06T20:25:53;44.63;;;42.20;;
16626;SDS011;8427;52.204;7.202;2023-08-06T20:28:22;44.67;;;42.17;;
16626;SDS011;8427;52.204;7.202;2023-08-06T20:30:53;63.33;;;56.93;;
16626;SDS011;8427;52.204;7.202;2023-08-06T20:33:21;43.60;;;41.30;;
16626;SDS011;8427;52.204;7.202;2023-08-06T20:35:49;42.90;;;40.90;;
16626;SDS011;8427;52.204;7.202;2023-08-06T20:38:17;42.17;;;40.17;;
16626;SDS011;8427;52.204;7.202;2023-08-06T20:40:45;53.00;;;48.70;;
16626;SDS011;8427;52.204;7.202;2023-08-06T20:43:14;39.17;;;37.57;;
16626;SDS011;8427;52.204;7.202;2023-08-06T20:45:44;41.43;;;39.63;;
16626;SDS011;8427;52.204;7.202;2023-08-06T20:48:19;40.87;;;39.07;;
16626;SDS011;8427;52.204;7.202;2023-08-06T20:50:47;39.20;;;37.60;;
16626;SDS011;8427;52.204;7.202;2023-08-06T20:53:16;41.30;;;39.33;;
16626;SDS011;8427;52.204;7.202;2023-08-06T20:55:44;42.63;;;40.57;;
16626;SDS011;8427;52.204;7.202;2023-08-06T20:58:11;50.47;;;46.70;;
16626;SDS011;8427;52.204;7.202;2023-08-06T21:00:39;46.97;;;44.33;;
16626;SDS011;8427;52.204;7.202;2023-08-06T21:03:10;40.27;;;38.43;;
16626;SDS011;8427;52.204;7.202;2023-08-06T21:05:38;41.20;;;39.30;;
16626;SDS011;8427;52.204;7.202;2023-08-06T21:08:06;42.57;;;40.50;;
16626;SDS011;8427;52.204;7.202;2023-08-06T21:10:34;43.27;;;41.10;;
16626;SDS011;8427;52.204;7.202;2023-08-06T21:13:01;43.47;;;41.23;;
16626;SDS011;8427;52.204;7.202;2023-08-06T21:15:29;64.73;;;58.63;;
16626;SDS011;8427;52.204;7.202;2023-08-06T21:17:57;45.23;;;42.73;;
16626;SDS011;8427;52.204;7.202;2023-08-06T21:20:27;42.73;;;40.67;;
16626;SDS011;8427;52.204;7.202;2023-08-06T21:22:55;40.20;;;38.40;;
16626;SDS011;8427;52.204;7.202;2023-08-06T21:25:23;62.43;;;55.80;;
16626;SDS011;8427;52.204;7.202;2023-08-06T21:27:51;62.90;;;56.37;;
16626;SDS011;8427;52.204;7.202;2023-08-06T21:30:19;65.57;;;57.23;;